Big Piney, WY weather

Big Piney-Marbleton Airport (AMOS), Big Piney, WY: 7/28/2014 05:53
Visibility10 statute milesclear sky
View 7-Day Forecast
Area Summary
Sky/CloudsSky Clear
Weather [last 24 hours]None
Pressure30.45 in.Hg (1031 hPa)
3-hour Pressure Tendency0.01181 in.Hg (0.4 hPa) Increasing, then decreasing
Dew Point27 F (-2.8 C)
Relative Humidity43.6 %
Temperature48 F (8.9 C)red thermometer
Reading TimeMinimum to Maximum Temperature
6-hr ending 7/28@05:5346 F to 59 F (7.8 C to 15 C)
6-hr ending 7/27@23:5357 F to 87.1 F (13.9 C to 30.6 C)
6-hr ending 7/27@17:5373.9 F to 88 F (23.3 C to 31.1 C)
6-hr ending 7/27@11:5335.1 F to 75 F (1.7 C to 23.9 C)
24-hr ending 7/28@00:5335.1 F to 88 F (1.7 C to 31.1 C)
Wind3.45 MPH (3 KT) green arrow pointing 67.5 degrees
Wind FromEast/Northeast (070 Degrees)
Twilight Begins05:37Sunshine Yesterday
Sunrise06:09N/A
Sunset20:44
Twilight Ends21:16
METARKBPI 281153Z AUTO 07003KT 10SM CLR 09/M03 A3045 RMK AO2 SLP212 T00891028 10150 20078 50004
Tags: